Time;durP1;ratioP1;P1;durP2;ratioP2;P2;SDS_P1;SDS_P2;PMS_P1;PMS_P2;Temp;Humidity;BMP_temperature;BMP_pressure;BME280_temperature;BME280_humidity;BME280_pressure;Samples;Min_cycle;Max_cycle;Signal;HPM_P1;HPM_P2
2021/12/10 00:01:54;;;;;;;25.20;15.80;;;;;;;;;;5071289;28;20040;-77
2021/12/10 00:04:21;;;;;;;25.15;14.85;;;;;;;;;;5074557;28;20047;-77
2021/12/10 00:06:49;;;;;;;25.70;15.55;;;;;;;;;;5072864;28;20047;-74
2021/12/10 00:09:26;;;;;;;24.40;17.05;;;;;;;;;;5039587;28;20063;-75
2021/12/10 00:12:09;;;;;;;25.05;16.25;;;;;;;;;;5072889;28;20029;-76
2021/12/10 00:14:36;;;;;;;27.02;17.00;;;;;;;;;;5056519;28;20068;-76
2021/12/10 00:17:03;;;;;;;26.75;18.20;;;;;;;;;;5056156;28;20476;-77
2021/12/10 00:19:36;;;;;;;22.35;16.35;;;;;;;;;;5055479;28;20460;-74
2021/12/10 00:22:06;;;;;;;24.92;16.15;;;;;;;;;;5072874;28;20083;-74
2021/12/10 00:24:32;;;;;;;24.70;16.02;;;;;;;;;;5056529;28;20054;-75
2021/12/10 00:26:59;;;;;;;27.33;16.40;;;;;;;;;;5072386;28;20127;-76
2021/12/10 00:29:24;;;;;;;23.92;16.10;;;;;;;;;;5073890;28;20044;-76
2021/12/10 00:31:52;;;;;;;20.52;14.98;;;;;;;;;;5056068;28;20035;-75
2021/12/10 00:34:24;;;;;;;22.15;16.25;;;;;;;;;;5074109;28;20060;-75
2021/12/10 00:36:51;;;;;;;22.17;16.52;;;;;;;;;;5073947;28;20033;-76
2021/12/10 00:39:19;;;;;;;29.55;16.52;;;;;;;;;;5073663;28;20036;-75
2021/12/10 00:41:45;;;;;;;23.27;15.73;;;;;;;;;;5072479;28;20120;-76
2021/12/10 00:44:10;;;;;;;23.77;16.25;;;;;;;;;;5073735;28;20045;-75
2021/12/10 00:46:36;;;;;;;24.42;16.20;;;;;;;;;;5073784;28;20048;-75
2021/12/10 00:49:02;;;;;;;25.75;15.88;;;;;;;;;;5055693;28;20037;-76
2021/12/10 00:51:27;;;;;;;21.42;17.20;;;;;;;;;;5022882;28;20089;-76
2021/12/10 00:53:53;;;;;;;24.70;17.27;;;;;;;;;;5073913;28;20501;-76
2021/12/10 00:56:19;;;;;;;23.13;17.77;;;;;;;;;;5072014;28;20036;-75
2021/12/10 00:58:44;;;;;;;24.77;17.42;;;;;;;;;;5073466;28;20487;-76
2021/12/10 01:01:15;;;;;;;25.90;17.58;;;;;;;;;;5073358;28;20078;-75
2021/12/10 01:03:43;;;;;;;23.77;17.00;;;;;;;;;;5055359;28;20491;-76
2021/12/10 01:06:11;;;;;;;30.10;17.65;;;;;;;;;;5055569;28;20044;-77
2021/12/10 01:08:38;;;;;;;26.83;18.58;;;;;;;;;;5073278;28;20476;-75
2021/12/10 01:11:23;;;;;;;26.60;17.38;;;;;;;;;;5073151;28;20050;-76
2021/12/10 01:13:52;;;;;;;28.67;17.67;;;;;;;;;;5055054;28;20032;-75
2021/12/10 01:27:14;;;;;;;25.55;16.35;;;;;;;;;;5073006;28;20036;-75
2021/12/10 01:29:41;;;;;;;25.33;16.83;;;;;;;;;;5054860;28;20032;-74
2021/12/10 01:32:08;;;;;;;30.05;17.77;;;;;;;;;;5055058;28;20523;-76
2021/12/10 01:34:33;;;;;;;23.88;17.33;;;;;;;;;;5073003;28;20178;-76
2021/12/10 01:36:59;;;;;;;23.52;16.95;;;;;;;;;;5072940;28;20059;-78
2021/12/10 01:39:26;;;;;;;25.35;16.83;;;;;;;;;;5073021;28;20486;-78
2021/12/10 01:42:14;;;;;;;24.15;16.88;;;;;;;;;;5072757;28;20472;-76
2021/12/10 01:44:43;;;;;;;21.40;16.17;;;;;;;;;;5072902;28;20040;-75
2021/12/10 01:47:09;;;;;;;25.27;17.27;;;;;;;;;;5071274;28;20028;-76
2021/12/10 01:49:36;;;;;;;23.75;16.73;;;;;;;;;;5054774;28;20044;-77
2021/12/10 01:52:03;;;;;;;22.95;16.15;;;;;;;;;;5054845;28;20063;-76
2021/12/10 01:54:30;;;;;;;23.75;16.23;;;;;;;;;;5071439;28;20044;-77
2021/12/10 01:56:57;;;;;;;22.77;16.73;;;;;;;;;;5054714;28;20484;-77
2021/12/10 01:59:24;;;;;;;26.10;17.42;;;;;;;;;;5054580;28;20077;-76
2021/12/10 02:01:52;;;;;;;27.75;16.88;;;;;;;;;;5054411;28;20044;-76
2021/12/10 02:04:18;;;;;;;25.42;17.58;;;;;;;;;;5071619;28;20102;-76
2021/12/10 02:06:44;;;;;;;26.80;17.80;;;;;;;;;;5071000;28;20040;-75
2021/12/10 02:09:11;;;;;;;24.20;17.33;;;;;;;;;;5071534;28;20476;-74
2021/12/10 02:11:37;;;;;;;25.98;17.92;;;;;;;;;;5054462;28;20024;-76
2021/12/10 02:14:02;;;;;;;31.52;17.75;;;;;;;;;;5071196;28;20040;-76
2021/12/10 02:16:28;;;;;;;23.40;16.20;;;;;;;;;;5070795;28;20048;-76
2021/12/10 02:18:53;;;;;;;29.65;18.10;;;;;;;;;;5054596;28;20028;-77
2021/12/10 02:21:21;;;;;;;24.50;16.52;;;;;;;;;;5071180;28;20032;-79
2021/12/10 02:23:50;;;;;;;24.25;16.40;;;;;;;;;;5072407;28;20042;-76
2021/12/10 02:26:16;;;;;;;21.90;16.70;;;;;;;;;;5072226;28;20043;-77
2021/12/10 02:28:42;;;;;;;27.23;17.48;;;;;;;;;;5054352;28;20407;-76
2021/12/10 02:31:08;;;;;;;25.02;17.45;;;;;;;;;;5070850;28;20459;-76
2021/12/10 02:33:34;;;;;;;22.13;15.90;;;;;;;;;;5054245;28;20039;-78
2021/12/10 02:35:59;;;;;;;23.48;15.88;;;;;;;;;;5072143;28;20119;-78
2021/12/10 02:38:25;;;;;;;23.52;16.23;;;;;;;;;;5072189;28;20036;-78
2021/12/10 02:40:52;;;;;;;27.33;16.55;;;;;;;;;;5072204;28;20116;-79
2021/12/10 02:43:18;;;;;;;23.08;16.25;;;;;;;;;;5037306;28;20043;-78
2021/12/10 02:45:46;;;;;;;26.23;17.73;;;;;;;;;;5070522;28;20036;-76
2021/12/10 02:48:11;;;;;;;24.58;18.05;;;;;;;;;;5054144;28;20090;-76
2021/12/10 02:50:37;;;;;;;24.52;17.15;;;;;;;;;;5072130;28;20443;-78
2021/12/10 02:53:04;;;;;;;22.95;16.55;;;;;;;;;;5054267;28;20032;-78
2021/12/10 02:55:30;;;;;;;22.90;16.13;;;;;;;;;;5070511;28;20407;-78
2021/12/10 02:57:57;;;;;;;22.15;15.90;;;;;;;;;;5072042;28;20141;-76
2021/12/10 03:00:30;;;;;;;23.17;15.25;;;;;;;;;;5071883;28;20028;-77
2021/12/10 03:02:56;;;;;;;22.63;15.68;;;;;;;;;;5053793;28;20074;-77
2021/12/10 03:05:22;;;;;;;24.90;15.80;;;;;;;;;;5070564;28;20113;-77
2021/12/10 03:07:48;;;;;;;24.92;17.65;;;;;;;;;;5071795;28;20471;-77
2021/12/10 03:10:17;;;;;;;23.33;16.38;;;;;;;;;;5070578;28;20037;-76
2021/12/10 03:12:42;;;;;;;25.58;17.35;;;;;;;;;;5072157;28;20086;-76
2021/12/10 03:15:09;;;;;;;23.77;17.25;;;;;;;;;;5071613;28;20426;-76
2021/12/10 03:17:35;;;;;;;26.52;17.67;;;;;;;;;;5071757;28;20036;-77
2021/12/10 03:20:01;;;;;;;22.95;15.52;;;;;;;;;;5054781;28;20039;-77
2021/12/10 03:22:27;;;;;;;23.13;15.65;;;;;;;;;;5075226;28;20475;-76
2021/12/10 03:24:53;;;;;;;183.57;23.83;;;;;;;;;;5074076;28;20086;-75
2021/12/10 03:27:19;;;;;;;24.83;16.02;;;;;;;;;;5075108;28;20078;-76
2021/12/10 03:29:44;;;;;;;23.30;14.63;;;;;;;;;;5073730;28;20128;-76
2021/12/10 03:32:12;;;;;;;20.95;14.07;;;;;;;;;;5056973;28;20115;-74
2021/12/10 03:34:38;;;;;;;17.77;13.82;;;;;;;;;;5073852;28;20069;-75
2021/12/10 03:37:04;;;;;;;18.67;12.40;;;;;;;;;;5074940;28;20081;-76
2021/12/10 03:39:30;;;;;;;25.98;12.52;;;;;;;;;;5056923;28;20392;-76
2021/12/10 03:41:57;;;;;;;20.73;12.25;;;;;;;;;;5073646;28;20113;-76
2021/12/10 03:44:23;;;;;;;18.45;9.57;;;;;;;;;;5074568;28;20031;-76
2021/12/10 03:46:48;;;;;;;20.23;11.25;;;;;;;;;;5073716;28;20032;-75
2021/12/10 03:49:14;;;;;;;19.58;10.77;;;;;;;;;;5074779;28;20613;-76
2021/12/10 03:51:40;;;;;;;21.83;11.98;;;;;;;;;;5073457;28;20041;-75
2021/12/10 03:54:06;;;;;;;16.40;9.95;;;;;;;;;;5074644;28;20483;-76
2021/12/10 03:56:32;;;;;;;14.25;9.80;;;;;;;;;;5056676;28;20051;-76
2021/12/10 03:58:59;;;;;;;14.25;8.35;;;;;;;;;;5073217;28;20043;-75
2021/12/10 04:01:27;;;;;;;14.63;9.05;;;;;;;;;;5056536;28;20461;-75
2021/12/10 04:03:53;;;;;;;11.02;7.90;;;;;;;;;;5068254;28;20028;-74
2021/12/10 04:06:19;;;;;;;13.60;8.13;;;;;;;;;;5070814;28;20033;-75
2021/12/10 04:08:44;;;;;;;17.20;10.07;;;;;;;;;;5069095;28;20032;-72
2021/12/10 04:11:10;;;;;;;13.43;9.23;;;;;;;;;;5069711;28;20114;-77
2021/12/10 04:13:36;;;;;;;13.73;10.20;;;;;;;;;;5052880;28;20040;-77
2021/12/10 04:16:03;;;;;;;15.68;10.45;;;;;;;;;;5052575;28;20043;-77
2021/12/10 04:18:29;;;;;;;15.63;10.45;;;;;;;;;;5069155;28;20416;-77
2021/12/10 04:20:54;;;;;;;15.68;10.32;;;;;;;;;;5077234;28;20142;-77
2021/12/10 04:23:24;;;;;;;14.27;10.27;;;;;;;;;;5090494;28;20532;-77
2021/12/10 04:25:49;;;;;;;17.67;11.93;;;;;;;;;;5089000;28;20138;-72
2021/12/10 04:28:16;;;;;;;15.55;11.00;;;;;;;;;;5090915;28;20119;-77
2021/12/10 04:30:42;;;;;;;20.70;11.95;;;;;;;;;;5072062;28;20028;-75
2021/12/10 04:33:09;;;;;;;15.82;11.07;;;;;;;;;;5089615;28;20032;-72
2021/12/10 04:35:35;;;;;;;19.35;12.13;;;;;;;;;;5072411;28;20032;-74
2021/12/10 04:38:00;;;;;;;14.07;10.38;;;;;;;;;;5089297;28;20029;-75
2021/12/10 04:40:26;;;;;;;14.20;10.55;;;;;;;;;;5090688;28;20039;-76
2021/12/10 04:42:52;;;;;;;14.63;9.85;;;;;;;;;;5088654;28;20055;-74
2021/12/10 04:45:18;;;;;;;15.77;10.88;;;;;;;;;;5088995;28;20040;-76
2021/12/10 04:47:44;;;;;;;14.40;10.25;;;;;;;;;;5090288;28;20032;-75
2021/12/10 04:50:10;;;;;;;16.23;9.95;;;;;;;;;;5090134;28;20371;-71
2021/12/10 04:52:36;;;;;;;13.85;9.05;;;;;;;;;;5072126;28;20526;-72
2021/12/10 04:55:07;;;;;;;13.60;9.63;;;;;;;;;;5089098;28;20032;-74
2021/12/10 04:57:32;;;;;;;14.85;8.90;;;;;;;;;;5071648;28;20115;-75
2021/12/10 04:59:58;;;;;;;14.27;10.13;;;;;;;;;;5071841;28;20161;-75
2021/12/10 05:02:24;;;;;;;13.18;9.35;;;;;;;;;;5089912;28;20040;-76
2021/12/10 05:04:49;;;;;;;13.73;9.05;;;;;;;;;;5071578;28;20024;-75
2021/12/10 05:07:16;;;;;;;13.43;9.68;;;;;;;;;;5088917;28;20063;-74
2021/12/10 05:09:43;;;;;;;16.98;9.50;;;;;;;;;;5090029;28;20159;-74
2021/12/10 05:12:09;;;;;;;15.50;10.52;;;;;;;;;;5088542;28;20125;-74
2021/12/10 05:14:34;;;;;;;12.05;9.20;;;;;;;;;;5071671;28;20471;-75
2021/12/10 05:17:04;;;;;;;11.98;9.07;;;;;;;;;;5089451;28;20054;-75
2021/12/10 05:19:30;;;;;;;13.15;9.63;;;;;;;;;;5071433;28;20119;-76
2021/12/10 05:21:56;;;;;;;17.63;10.18;;;;;;;;;;5089518;28;20123;-76
2021/12/10 05:24:21;;;;;;;17.83;11.32;;;;;;;;;;5088420;28;20032;-73
2021/12/10 05:26:47;;;;;;;16.38;10.68;;;;;;;;;;5089366;28;20036;-75
2021/12/10 05:29:13;;;;;;;15.77;10.73;;;;;;;;;;5071089;28;20369;-75
2021/12/10 05:31:41;;;;;;;15.55;10.05;;;;;;;;;;5071510;28;20036;-74
2021/12/10 05:34:07;;;;;;;15.15;9.57;;;;;;;;;;5071251;28;20028;-75
2021/12/10 05:36:32;;;;;;;14.35;9.90;;;;;;;;;;5088412;28;20093;-74
2021/12/10 05:38:58;;;;;;;14.27;9.75;;;;;;;;;;5089324;28;20032;-71
2021/12/10 05:41:24;;;;;;;13.63;9.25;;;;;;;;;;5071044;28;20035;-74
2021/12/10 05:43:50;;;;;;;33.95;10.13;;;;;;;;;;5088082;28;20028;-74
2021/12/10 05:46:17;;;;;;;14.25;9.07;;;;;;;;;;5088031;28;20032;-76
2021/12/10 05:48:42;;;;;;;16.88;9.93;;;;;;;;;;5070739;28;20487;-71
2021/12/10 05:51:08;;;;;;;12.98;9.43;;;;;;;;;;5087937;28;20107;-76
2021/12/10 05:53:33;;;;;;;13.15;8.73;;;;;;;;;;5089247;28;20032;-77
2021/12/10 05:55:59;;;;;;;14.63;8.32;;;;;;;;;;5087776;28;20039;-76
2021/12/10 05:58:25;;;;;;;17.02;9.57;;;;;;;;;;5070919;28;20491;-75
2021/12/10 06:00:52;;;;;;;11.45;9.05;;;;;;;;;;5087652;28;20040;-74
2021/12/10 06:03:18;;;;;;;12.43;8.52;;;;;;;;;;5070883;28;20029;-74
2021/12/10 06:05:44;;;;;;;10.82;7.55;;;;;;;;;;5087537;28;20036;-74
2021/12/10 06:08:10;;;;;;;13.30;8.23;;;;;;;;;;5087824;28;20498;-77
2021/12/10 06:10:37;;;;;;;13.75;9.35;;;;;;;;;;5088823;28;20044;-75
2021/12/10 06:13:02;;;;;;;14.45;8.48;;;;;;;;;;5089132;28;20060;-77
2021/12/10 06:15:28;;;;;;;14.82;8.30;;;;;;;;;;5088858;28;20070;-78
2021/12/10 06:17:53;;;;;;;11.27;7.93;;;;;;;;;;5088614;28;20031;-77
2021/12/10 06:20:21;;;;;;;11.95;7.07;;;;;;;;;;5088820;28;20031;-77
2021/12/10 06:22:46;;;;;;;10.80;6.45;;;;;;;;;;5088445;28;20043;-75
2021/12/10 06:25:12;;;;;;;8.10;5.00;;;;;;;;;;5088505;28;20387;-76
2021/12/10 06:27:44;;;;;;;9.50;5.60;;;;;;;;;;5087479;28;20047;-77
2021/12/10 06:30:10;;;;;;;8.75;5.57;;;;;;;;;;5070530;28;20365;-74
2021/12/10 06:32:35;;;;;;;10.25;5.22;;;;;;;;;;5070408;28;20039;-75
2021/12/10 06:35:01;;;;;;;8.90;5.15;;;;;;;;;;5087146;28;20395;-75
2021/12/10 06:37:26;;;;;;;8.63;5.40;;;;;;;;;;5087544;28;20475;-76
2021/12/10 06:39:52;;;;;;;8.57;5.38;;;;;;;;;;5088269;28;20043;-74
2021/12/10 06:42:17;;;;;;;7.82;4.82;;;;;;;;;;5088714;28;20459;-76
2021/12/10 06:44:43;;;;;;;8.55;5.90;;;;;;;;;;5087427;28;20035;-76
2021/12/10 06:47:08;;;;;;;10.23;5.97;;;;;;;;;;5088422;28;20535;-75
2021/12/10 06:49:34;;;;;;;10.23;6.65;;;;;;;;;;5088542;28;20123;-73
2021/12/10 06:52:01;;;;;;;8.90;6.18;;;;;;;;;;5088485;28;20058;-74
2021/12/10 06:54:28;;;;;;;11.80;6.28;;;;;;;;;;5087002;28;20556;-72
2021/12/10 06:56:53;;;;;;;9.40;6.35;;;;;;;;;;5090685;28;20024;-74
2021/12/10 06:59:19;;;;;;;10.40;6.22;;;;;;;;;;5091767;28;20028;-75
2021/12/10 07:01:44;;;;;;;10.55;7.18;;;;;;;;;;5091792;28;20403;-75
2021/12/10 07:04:11;;;;;;;11.02;7.32;;;;;;;;;;5091873;28;20032;-75
2021/12/10 07:06:38;;;;;;;11.63;7.32;;;;;;;;;;5091641;28;20024;-76
2021/12/10 07:09:07;;;;;;;13.07;8.27;;;;;;;;;;5091819;28;20044;-76
2021/12/10 07:11:33;;;;;;;14.63;8.32;;;;;;;;;;5092007;28;20028;-74
2021/12/10 07:13:58;;;;;;;10.52;6.95;;;;;;;;;;5091560;28;20046;-74
2021/12/10 07:16:25;;;;;;;11.52;6.10;;;;;;;;;;5091569;28;20042;-74
2021/12/10 07:18:52;;;;;;;11.23;5.30;;;;;;;;;;5073298;28;20032;-74
2021/12/10 07:21:17;;;;;;;6.60;4.50;;;;;;;;;;5092036;28;20470;-74
2021/12/10 07:23:43;;;;;;;7.00;4.20;;;;;;;;;;5090297;28;20100;-73
2021/12/10 07:26:09;;;;;;;6.38;4.07;;;;;;;;;;5091483;28;20036;-71
2021/12/10 07:28:35;;;;;;;8.93;4.78;;;;;;;;;;5091305;28;20035;-73
2021/12/10 07:31:01;;;;;;;7.72;4.88;;;;;;;;;;5089983;28;20036;-75
2021/12/10 07:33:27;;;;;;;8.68;4.22;;;;;;;;;;5091533;28;20039;-73
2021/12/10 07:35:53;;;;;;;7.55;3.85;;;;;;;;;;5091306;28;20166;-76
2021/12/10 07:38:18;;;;;;;7.40;4.70;;;;;;;;;;5091162;28;20115;-74
2021/12/10 07:40:44;;;;;;;9.18;4.45;;;;;;;;;;5090715;28;20115;-73
2021/12/10 07:43:10;;;;;;;10.30;4.22;;;;;;;;;;5073042;28;20075;-73
2021/12/10 07:45:37;;;;;;;5.75;3.40;;;;;;;;;;5089939;28;20423;-73
2021/12/10 07:48:07;;;;;;;5.32;3.10;;;;;;;;;;5090409;28;20058;-75
2021/12/10 07:50:34;;;;;;;7.22;3.63;;;;;;;;;;5090347;28;20060;-76
2021/12/10 07:53:01;;;;;;;7.00;3.08;;;;;;;;;;5090035;28;20039;-71
2021/12/10 07:55:28;;;;;;;5.63;3.10;;;;;;;;;;5072923;28;20024;-73
2021/12/10 07:57:54;;;;;;;6.00;3.08;;;;;;;;;;5091088;28;20396;-74
2021/12/10 08:00:21;;;;;;;4.93;3.50;;;;;;;;;;5090075;28;20020;-74
2021/12/10 08:02:47;;;;;;;5.10;3.17;;;;;;;;;;5089277;28;20062;-74
2021/12/10 08:05:13;;;;;;;5.70;3.22;;;;;;;;;;5091105;28;20073;-73
2021/12/10 08:07:39;;;;;;;9.15;3.22;;;;;;;;;;5089746;28;20355;-72
2021/12/10 08:10:06;;;;;;;5.60;3.00;;;;;;;;;;5072899;28;20464;-74
2021/12/10 08:12:32;;;;;;;7.03;3.13;;;;;;;;;;5089589;28;20043;-75
2021/12/10 08:14:58;;;;;;;6.18;3.17;;;;;;;;;;5090770;28;20035;-74
2021/12/10 08:17:26;;;;;;;5.70;3.30;;;;;;;;;;5090520;28;20024;-75
2021/12/10 08:19:51;;;;;;;6.68;3.20;;;;;;;;;;5072526;28;20028;-73
2021/12/10 08:22:17;;;;;;;6.03;3.75;;;;;;;;;;5089357;28;20490;-75
2021/12/10 08:24:42;;;;;;;9.43;3.70;;;;;;;;;;5089137;28;20506;-75
2021/12/10 08:27:09;;;;;;;6.22;4.10;;;;;;;;;;5090570;28;20024;-75
2021/12/10 08:29:34;;;;;;;5.57;3.70;;;;;;;;;;5090476;28;20032;-75
2021/12/10 08:32:00;;;;;;;5.22;3.10;;;;;;;;;;5090508;28;20459;-77
2021/12/10 08:34:26;;;;;;;7.85;3.55;;;;;;;;;;5072440;28;20057;-61
2021/12/10 08:36:52;;;;;;;6.20;3.58;;;;;;;;;;5072202;28;20040;-62
2021/12/10 08:39:17;;;;;;;6.00;3.95;;;;;;;;;;5090304;28;20048;-62
2021/12/10 08:41:43;;;;;;;5.15;3.85;;;;;;;;;;5086873;28;20028;-64
2021/12/10 08:44:09;;;;;;;5.85;3.85;;;;;;;;;;5089309;28;20561;-64
2021/12/10 08:46:35;;;;;;;9.88;4.78;;;;;;;;;;5078135;28;20605;-62
2021/12/10 08:49:01;;;;;;;6.20;4.55;;;;;;;;;;5068793;28;20032;-62
2021/12/10 08:51:31;;;;;;;7.75;4.38;;;;;;;;;;5069538;28;20443;-66
2021/12/10 08:53:57;;;;;;;10.77;4.75;;;;;;;;;;5051699;28;20033;-62
2021/12/10 08:56:22;;;;;;;8.63;5.05;;;;;;;;;;5069729;28;20028;-61
2021/12/10 08:58:48;;;;;;;7.32;4.38;;;;;;;;;;5069408;28;20108;-68
2021/12/10 09:01:15;;;;;;;8.15;4.75;;;;;;;;;;5067857;28;20476;-65
2021/12/10 09:03:46;;;;;;;6.70;4.68;;;;;;;;;;5049595;28;20082;-62
2021/12/10 09:06:12;;;;;;;6.05;3.90;;;;;;;;;;5066538;28;20040;-65
2021/12/10 09:08:38;;;;;;;6.97;3.80;;;;;;;;;;5049518;28;20414;-63
2021/12/10 09:11:04;;;;;;;7.57;3.88;;;;;;;;;;5067672;28;20526;-63
2021/12/10 09:13:29;;;;;;;6.25;3.92;;;;;;;;;;5049406;28;20028;-64
2021/12/10 09:15:58;;;;;;;8.23;3.55;;;;;;;;;;5068988;28;20029;-63
2021/12/10 09:18:24;;;;;;;7.07;3.40;;;;;;;;;;5065074;28;20027;-62
2021/12/10 09:20:50;;;;;;;11.20;7.68;;;;;;;;;;5069282;28;20033;-62
2021/12/10 09:23:19;;;;;;;27.20;18.17;;;;;;;;;;5051362;28;20036;-61
2021/12/10 09:25:45;;;;;;;21.00;12.55;;;;;;;;;;5069422;28;20051;-62
2021/12/10 09:28:10;;;;;;;13.77;9.55;;;;;;;;;;5050979;28;20040;-63
2021/12/10 09:30:37;;;;;;;12.80;6.78;;;;;;;;;;5068934;28;20048;-64
2021/12/10 09:33:03;;;;;;;6.97;3.60;;;;;;;;;;5068174;28;20032;-62
2021/12/10 09:35:30;;;;;;;10.02;5.07;;;;;;;;;;5069389;28;20051;-62
2021/12/10 09:37:55;;;;;;;23.60;11.80;;;;;;;;;;5051199;28;20040;-63
2021/12/10 09:40:24;;;;;;;13.60;7.28;;;;;;;;;;5069284;28;20036;-62
2021/12/10 09:42:49;;;;;;;6.25;3.85;;;;;;;;;;5050994;28;20060;-62
2021/12/10 09:45:16;;;;;;;6.78;4.38;;;;;;;;;;5069651;28;20075;-62
2021/12/10 09:47:42;;;;;;;5.78;3.60;;;;;;;;;;5068878;28;20424;-62
2021/12/10 09:50:08;;;;;;;6.55;3.22;;;;;;;;;;5069183;28;20067;-65
2021/12/10 09:52:34;;;;;;;6.03;3.13;;;;;;;;;;5051032;28;20033;-64
2021/12/10 09:54:59;;;;;;;8.18;3.10;;;;;;;;;;5068449;28;20093;-63
2021/12/10 09:57:27;;;;;;;4.78;2.90;;;;;;;;;;5068997;28;20052;-62
2021/12/10 09:59:54;;;;;;;6.28;3.22;;;;;;;;;;5068729;28;20036;-62
2021/12/10 10:02:20;;;;;;;7.22;3.10;;;;;;;;;;5050959;28;20036;-63
2021/12/10 10:04:49;;;;;;;5.60;2.95;;;;;;;;;;5068790;28;20036;-63
2021/12/10 10:07:16;;;;;;;5.97;3.53;;;;;;;;;;5050535;28;20399;-63
2021/12/10 10:09:46;;;;;;;6.22;3.08;;;;;;;;;;5049946;28;20036;-68
2021/12/10 10:12:31;;;;;;;6.30;3.78;;;;;;;;;;5067007;28;20036;-63
2021/12/10 10:14:58;;;;;;;8.80;3.65;;;;;;;;;;5065318;28;20048;-64
2021/12/10 10:17:24;;;;;;;4.60;3.00;;;;;;;;;;5070794;28;20101;-63
2021/12/10 10:19:50;;;;;;;7.80;3.90;;;;;;;;;;5066265;28;20071;-64
2021/12/10 10:22:18;;;;;;;7.38;3.33;;;;;;;;;;5066284;28;20028;-68
2021/12/10 10:24:43;;;;;;;5.03;3.13;;;;;;;;;;5066496;28;20147;-64
2021/12/10 10:27:11;;;;;;;8.25;3.08;;;;;;;;;;5072579;28;20102;-66
2021/12/10 10:29:38;;;;;;;5.97;3.35;;;;;;;;;;5085792;28;20038;-63
2021/12/10 10:32:09;;;;;;;4.55;2.70;;;;;;;;;;5076350;28;20060;-63
2021/12/10 10:34:37;;;;;;;4.97;2.67;;;;;;;;;;5067336;28;20112;-63
2021/12/10 10:37:03;;;;;;;4.47;2.40;;;;;;;;;;5076187;28;20029;-63
2021/12/10 10:39:34;;;;;;;6.57;3.67;;;;;;;;;;5066401;28;20032;-62
2021/12/10 10:42:00;;;;;;;5.85;2.95;;;;;;;;;;5077527;28;20506;-68
2021/12/10 10:44:25;;;;;;;4.35;1.95;;;;;;;;;;5080532;28;20116;-63
2021/12/10 10:46:53;;;;;;;7.50;2.88;;;;;;;;;;5069524;28;20156;-62
2021/12/10 10:49:47;;;;;;;4.28;2.33;;;;;;;;;;5086316;28;20115;-64
2021/12/10 10:52:13;;;;;;;5.53;2.88;;;;;;;;;;5072333;28;20449;-64
2021/12/10 10:54:39;;;;;;;4.97;2.80;;;;;;;;;;5085510;28;20044;-65
2021/12/10 10:57:13;;;;;;;5.53;3.10;;;;;;;;;;5085524;28;20085;-65
2021/12/10 10:59:39;;;;;;;8.02;3.20;;;;;;;;;;5076700;28;20036;-63
2021/12/10 11:02:07;;;;;;;7.15;2.97;;;;;;;;;;5065290;28;20052;-65
2021/12/10 11:04:39;;;;;;;5.82;3.47;;;;;;;;;;5047190;28;20036;-63
2021/12/10 11:07:05;;;;;;;6.05;3.58;;;;;;;;;;5066175;28;20396;-62
2021/12/10 11:09:32;;;;;;;6.50;3.95;;;;;;;;;;5067343;28;20040;-64
2021/12/10 11:12:06;;;;;;;12.00;3.92;;;;;;;;;;5062899;28;20071;-62
2021/12/10 11:14:34;;;;;;;9.13;4.32;;;;;;;;;;5065314;28;20043;-64
2021/12/10 11:17:07;;;;;;;10.10;4.40;;;;;;;;;;5077701;28;20036;-67
2021/12/10 11:19:33;;;;;;;9.70;4.05;;;;;;;;;;5049373;28;20055;-63
2021/12/10 11:22:04;;;;;;;8.18;3.90;;;;;;;;;;5036764;28;20495;-69
2021/12/10 11:24:37;;;;;;;8.38;4.20;;;;;;;;;;5068952;28;20036;-67
2021/12/10 11:27:09;;;;;;;8.55;4.55;;;;;;;;;;5069150;28;20035;-62
2021/12/10 11:29:43;;;;;;;7.50;4.53;;;;;;;;;;5069322;28;20040;-62
2021/12/10 11:32:09;;;;;;;7.82;4.38;;;;;;;;;;5085895;28;20503;-62
2021/12/10 11:34:38;;;;;;;12.45;4.22;;;;;;;;;;5087372;28;20039;-70
2021/12/10 11:37:04;;;;;;;9.77;4.15;;;;;;;;;;5069209;28;20086;-63
2021/12/10 11:39:47;;;;;;;7.55;3.88;;;;;;;;;;5087058;28;20043;-64
2021/12/10 11:42:36;;;;;;;10.10;4.30;;;;;;;;;;5071763;28;20028;-63
2021/12/10 11:45:16;;;;;;;7.10;4.20;;;;;;;;;;5090541;28;20035;-63
2021/12/10 11:47:48;;;;;;;10.57;4.22;;;;;;;;;;5089553;28;20387;-63
2021/12/10 11:50:21;;;;;;;7.18;4.28;;;;;;;;;;5089468;28;20040;-62
2021/12/10 11:53:04;;;;;;;6.75;4.18;;;;;;;;;;5090326;28;20106;-63
2021/12/10 11:55:32;;;;;;;10.75;4.35;;;;;;;;;;5089456;28;20426;-65
2021/12/10 11:57:57;;;;;;;10.35;4.75;;;;;;;;;;5088976;28;20101;-68
2021/12/10 12:00:25;;;;;;;9.32;4.63;;;;;;;;;;5090534;28;20020;-63
2021/12/10 12:03:16;;;;;;;10.27;4.15;;;;;;;;;;5090345;28;20524;-62
2021/12/10 12:05:43;;;;;;;8.07;5.00;;;;;;;;;;5087859;28;20067;-63
2021/12/10 12:08:11;;;;;;;8.90;5.03;;;;;;;;;;5090158;28;20038;-63
2021/12/10 12:10:39;;;;;;;7.00;4.30;;;;;;;;;;5090022;28;20063;-62
2021/12/10 12:15:44;;;;;;;6.53;3.83;;;;;;;;;;5089079;28;20042;-62
2021/12/10 12:18:14;;;;;;;7.13;3.88;;;;;;;;;;5090156;28;20429;-62
2021/12/10 12:20:43;;;;;;;7.80;3.83;;;;;;;;;;5070408;28;20395;-68
2021/12/10 12:25:56;;;;;;;12.07;3.90;;;;;;;;;;5090004;28;20051;-63
2021/12/10 12:28:24;;;;;;;10.35;4.18;;;;;;;;;;5088106;28;20183;-62
2021/12/10 12:30:55;;;;;;;8.73;4.22;;;;;;;;;;5088373;28;20044;-62
2021/12/10 12:33:21;;;;;;;7.05;3.78;;;;;;;;;;5088168;28;20040;-63
2021/12/10 12:35:48;;;;;;;7.05;3.65;;;;;;;;;;5088598;28;20605;-68
2021/12/10 12:38:20;;;;;;;9.23;4.35;;;;;;;;;;5089576;28;20035;-69
2021/12/10 12:41:02;;;;;;;8.63;4.00;;;;;;;;;;5087874;28;20059;-63
2021/12/10 12:43:28;;;;;;;12.13;4.45;;;;;;;;;;5090080;28;20047;-64
2021/12/10 12:46:01;;;;;;;8.52;4.05;;;;;;;;;;5088686;28;20028;-62
2021/12/10 12:48:27;;;;;;;6.97;4.20;;;;;;;;;;5071328;28;20067;-68
2021/12/10 12:50:55;;;;;;;8.27;4.72;;;;;;;;;;5089348;28;20055;-63
2021/12/10 12:53:29;;;;;;;8.65;4.22;;;;;;;;;;5087727;28;20434;-64
2021/12/10 12:55:55;;;;;;;9.27;5.07;;;;;;;;;;5088534;28;20101;-62
2021/12/10 12:58:29;;;;;;;7.65;4.15;;;;;;;;;;5089495;28;20028;-64
2021/12/10 13:00:57;;;;;;;8.50;4.60;;;;;;;;;;5071353;28;20151;-62
2021/12/10 13:03:49;;;;;;;9.07;4.95;;;;;;;;;;5088125;28;20035;-62
2021/12/10 13:06:18;;;;;;;8.88;5.22;;;;;;;;;;5086327;28;20055;-67
2021/12/10 13:08:46;;;;;;;10.30;6.47;;;;;;;;;;5071023;28;20051;-62
2021/12/10 13:11:20;;;;;;;9.80;5.28;;;;;;;;;;5071297;28;20066;-62
2021/12/10 13:13:48;;;;;;;9.88;4.93;;;;;;;;;;5071207;28;20067;-64
2021/12/10 13:16:14;;;;;;;8.55;4.25;;;;;;;;;;5089400;28;20036;-63
2021/12/10 13:18:41;;;;;;;11.77;5.55;;;;;;;;;;5070877;28;20032;-62
2021/12/10 13:21:09;;;;;;;10.77;4.78;;;;;;;;;;5087696;28;20438;-63
2021/12/10 13:23:34;;;;;;;9.15;4.65;;;;;;;;;;5070790;28;20471;-64
2021/12/10 13:26:01;;;;;;;8.65;3.58;;;;;;;;;;5088728;28;20106;-62
2021/12/10 13:28:26;;;;;;;7.75;3.80;;;;;;;;;;5070070;28;20047;-62
2021/12/10 13:30:54;;;;;;;5.75;3.33;;;;;;;;;;5087347;28;20039;-62
2021/12/10 13:33:23;;;;;;;7.43;3.33;;;;;;;;;;5088252;28;20032;-63
2021/12/10 13:35:49;;;;;;;7.40;3.88;;;;;;;;;;5088778;28;20032;-62
2021/12/10 13:38:15;;;;;;;10.77;4.00;;;;;;;;;;5085206;28;20038;-63
2021/12/10 13:40:42;;;;;;;11.55;6.00;;;;;;;;;;5087224;28;20425;-63
2021/12/10 13:43:08;;;;;;;11.05;4.85;;;;;;;;;;5068741;28;20093;-66
2021/12/10 13:45:37;;;;;;;9.48;5.60;;;;;;;;;;5052821;28;20434;-63
2021/12/10 13:48:08;;;;;;;10.35;5.88;;;;;;;;;;5050575;28;20403;-64
2021/12/10 13:50:36;;;;;;;11.05;6.45;;;;;;;;;;5068420;28;20032;-66
2021/12/10 13:53:03;;;;;;;12.57;6.70;;;;;;;;;;5068456;28;20032;-64
2021/12/10 13:55:32;;;;;;;10.30;6.78;;;;;;;;;;5068081;28;20549;-64
2021/12/10 13:58:10;;;;;;;13.00;6.85;;;;;;;;;;5087985;28;20570;-62
2021/12/10 14:00:36;;;;;;;16.88;7.47;;;;;;;;;;5088240;28;20032;-63
2021/12/10 14:03:02;;;;;;;10.63;6.88;;;;;;;;;;5088586;28;20498;-63
2021/12/10 14:05:29;;;;;;;14.90;6.43;;;;;;;;;;5086249;28;20040;-62
2021/12/10 14:07:58;;;;;;;14.45;7.63;;;;;;;;;;5086781;28;20126;-63
2021/12/10 14:10:35;;;;;;;11.57;5.97;;;;;;;;;;5070466;28;20077;-62
2021/12/10 14:13:03;;;;;;;10.80;3.70;;;;;;;;;;5070043;28;20203;-63
2021/12/10 14:15:48;;;;;;;6.80;3.20;;;;;;;;;;5070206;28;20040;-67
2021/12/10 14:18:16;;;;;;;8.25;3.15;;;;;;;;;;5088184;28;20036;-62
2021/12/10 14:20:52;;;;;;;6.45;2.70;;;;;;;;;;5053242;28;20036;-62
2021/12/10 14:23:25;;;;;;;12.15;5.32;;;;;;;;;;5087336;28;20036;-63
2021/12/10 14:25:55;;;;;;;14.10;7.38;;;;;;;;;;5076455;28;20128;-64
2021/12/10 14:28:28;;;;;;;12.57;6.65;;;;;;;;;;5086458;28;20548;-63
2021/12/10 14:30:54;;;;;;;11.30;5.13;;;;;;;;;;5086997;28;20042;-63
2021/12/10 14:33:25;;;;;;;10.63;5.95;;;;;;;;;;5067965;28;20036;-62
2021/12/10 14:35:52;;;;;;;12.85;6.07;;;;;;;;;;5087605;28;20036;-62
2021/12/10 14:38:28;;;;;;;10.40;5.60;;;;;;;;;;5086711;28;20053;-62
2021/12/10 14:40:56;;;;;;;8.27;3.50;;;;;;;;;;5069607;28;20048;-63
2021/12/10 14:43:27;;;;;;;10.32;3.25;;;;;;;;;;5087654;28;20024;-62
2021/12/10 14:45:55;;;;;;;10.98;3.92;;;;;;;;;;5088098;28;20065;-63
2021/12/10 14:48:21;;;;;;;8.98;4.10;;;;;;;;;;5086457;28;20113;-69
2021/12/10 14:51:05;;;;;;;8.63;3.40;;;;;;;;;;5085698;28;20429;-62